createdAt,value
2019-04-01T00:00:41.125Z,0.00
2019-04-01T00:05:42.606Z,0.20
2019-04-01T00:10:44.078Z,0.10
2019-04-01T00:15:45.556Z,0.10
2019-04-01T00:20:47.127Z,0.10
2019-04-01T00:25:48.909Z,-0.20
2019-04-01T00:30:50.392Z,-0.20
2019-04-01T00:35:52.150Z,-0.50
2019-04-01T00:40:53.741Z,-0.60
2019-04-01T00:45:57.103Z,-0.70
2019-04-01T00:50:58.597Z,-0.60
2019-04-01T00:56:00.069Z,-0.60
2019-04-01T01:01:01.538Z,-0.60
2019-04-01T01:06:03.191Z,-0.40
2019-04-01T01:11:04.674Z,-0.50
2019-04-01T01:16:06.439Z,-0.50
2019-04-01T01:21:08.010Z,-0.70
2019-04-01T01:26:09.504Z,-0.70
2019-04-01T01:31:10.997Z,-0.70
2019-04-01T01:36:12.611Z,-0.80
2019-04-01T01:41:14.588Z,-1.00
2019-04-01T01:46:16.208Z,-0.90
2019-04-01T01:51:17.796Z,-0.90
2019-04-01T01:56:19.354Z,-1.00
2019-04-01T02:01:20.828Z,-1.10
2019-04-01T02:06:22.320Z,-1.10
2019-04-01T02:11:23.829Z,-1.10
2019-04-01T02:16:25.356Z,-1.10
2019-04-01T02:21:26.819Z,-1.10
2019-04-01T02:26:28.297Z,-1.40
2019-04-01T02:31:29.769Z,-1.30
2019-04-01T02:36:31.254Z,-1.40
2019-04-01T02:41:32.980Z,-1.30
2019-04-01T02:46:34.464Z,-1.30
2019-04-01T02:51:36.059Z,-1.30
2019-04-01T02:56:37.608Z,-1.40
2019-04-01T03:01:39.087Z,-1.50
2019-04-01T03:06:40.554Z,-1.60
2019-04-01T03:11:42.119Z,-1.50
2019-04-01T03:16:43.695Z,-1.70
2019-04-01T03:21:45.182Z,-1.70
2019-04-01T03:26:46.663Z,-1.80
2019-04-01T03:31:48.132Z,-1.80
2019-04-01T03:36:49.649Z,-1.80
2019-04-01T03:41:51.511Z,-1.90
2019-04-01T03:46:53.067Z,-1.80
2019-04-01T03:51:54.875Z,-2.00
2019-04-01T03:56:56.358Z,-2.00
2019-04-01T04:01:57.989Z,-2.00
2019-04-01T04:06:59.554Z,-2.00
2019-04-01T04:12:01.102Z,-2.00
2019-04-01T04:17:02.560Z,-2.20
2019-04-01T04:22:04.123Z,-2.20
2019-04-01T04:27:05.612Z,-2.20
2019-04-01T04:32:07.161Z,-2.20
2019-04-01T04:37:08.742Z,-2.20
2019-04-01T04:42:10.283Z,-2.30
2019-04-01T04:47:11.734Z,-2.20
2019-04-01T04:52:13.203Z,-2.20
2019-04-01T04:57:14.679Z,-2.20
2019-04-01T05:02:16.158Z,-2.30
2019-04-01T05:07:18.008Z,-2.20
2019-04-01T05:12:20.027Z,-2.30
2019-04-01T05:17:21.817Z,-2.20
2019-04-01T05:22:25.013Z,-2.20
2019-04-01T05:27:26.535Z,-2.10
2019-04-01T05:32:30.970Z,-2.10
2019-04-01T05:37:32.785Z,-2.10
2019-04-01T05:42:35.114Z,-2.00
2019-04-01T05:47:44.732Z,-2.00
2019-04-01T05:52:46.210Z,-1.80
2019-04-01T05:57:48.069Z,-1.70
2019-04-01T06:02:49.542Z,-1.60
2019-04-01T06:07:51.325Z,-1.50
2019-04-01T06:12:53.196Z,-1.40
2019-04-01T06:17:54.986Z,-1.20
2019-04-01T06:22:57.248Z,-1.00
2019-04-01T06:27:59.020Z,-0.80
2019-04-01T06:33:00.854Z,-0.60
2019-04-01T06:38:02.769Z,-0.20
2019-04-01T06:43:04.326Z,0.30
2019-04-01T06:48:06.321Z,0.60
2019-04-01T06:53:07.790Z,1.00
2019-04-01T06:58:11.955Z,1.20
2019-04-01T07:03:12.731Z,1.40
2019-04-01T07:08:14.291Z,1.90
2019-04-01T07:13:16.318Z,2.40
2019-04-01T07:18:17.792Z,2.80
2019-04-01T07:23:19.266Z,2.80
2019-04-01T07:28:20.722Z,3.10
2019-04-01T07:33:22.627Z,3.50
2019-04-01T07:38:24.766Z,3.60
2019-04-01T07:43:26.291Z,3.90
2019-04-01T07:48:28.117Z,4.30
2019-04-01T07:53:29.861Z,4.40
2019-04-01T07:58:31.314Z,4.60
2019-04-01T08:03:32.779Z,4.70
2019-04-01T08:08:34.801Z,5.10
2019-04-01T08:13:36.259Z,5.30
2019-04-01T08:18:37.735Z,5.40
2019-04-01T08:23:39.308Z,5.50
2019-04-01T08:28:41.067Z,5.60
2019-04-01T08:33:43.037Z,5.70
2019-04-01T08:38:44.598Z,5.90
2019-04-01T08:43:46.406Z,6.10
2019-04-01T08:48:48.576Z,6.30
2019-04-01T08:53:50.037Z,6.40
2019-04-01T08:58:51.924Z,6.30
2019-04-01T09:03:53.541Z,6.60
2019-04-01T09:08:56.670Z,6.80
2019-04-01T09:13:58.441Z,7.00
2019-04-01T09:18:59.907Z,7.50
2019-04-01T09:24:01.378Z,7.50
2019-04-01T09:29:03.138Z,7.40
2019-04-01T09:34:04.947Z,7.60
2019-04-01T09:39:06.822Z,7.70
2019-04-01T09:44:08.370Z,8.10
2019-04-01T09:49:09.763Z,7.70
2019-04-01T09:54:11.391Z,8.30
2019-04-01T09:59:12.873Z,8.30
2019-04-01T10:04:14.666Z,8.60
2019-04-01T10:09:16.139Z,8.70
2019-04-01T10:14:18.007Z,9.00
2019-04-01T10:19:19.919Z,9.50
2019-04-01T10:24:22.262Z,9.50
2019-04-01T10:29:23.791Z,9.50
2019-04-01T10:34:25.363Z,10.30
2019-04-01T10:39:26.930Z,10.20
2019-04-01T10:44:28.483Z,10.20
2019-04-01T10:49:32.128Z,10.60
2019-04-01T10:54:33.403Z,10.70
2019-04-01T10:59:35.009Z,10.70
2019-04-01T11:04:36.514Z,10.50
2019-04-01T11:09:38.969Z,11.20
2019-04-01T11:14:40.461Z,11.10
2019-04-01T11:19:42.294Z,10.90
2019-04-01T11:24:44.761Z,11.70
2019-04-01T11:29:46.226Z,12.20
2019-04-01T11:34:47.759Z,11.50
2019-04-01T11:39:49.301Z,11.30
2019-04-01T11:44:52.508Z,11.60
2019-04-01T11:49:54.780Z,11.80
2019-04-01T11:54:56.339Z,11.90
2019-04-01T11:59:58.324Z,11.80
2019-04-01T12:04:59.804Z,11.50
2019-04-01T12:10:01.490Z,12.10
2019-04-01T12:15:04.851Z,11.70
2019-04-01T12:20:07.158Z,11.90
2019-04-01T12:25:09.353Z,12.70
2019-04-01T12:30:11.435Z,12.80
2019-04-01T12:35:13.109Z,12.60
2019-04-01T12:40:15.110Z,13.10
2019-04-01T12:45:17.054Z,12.90
2019-04-01T12:50:18.529Z,12.70
2019-04-01T12:55:20.434Z,13.50
2019-04-01T13:00:22.374Z,12.90
2019-04-01T13:05:24.087Z,12.30
2019-04-01T13:10:25.553Z,13.10
2019-04-01T13:15:27.381Z,13.50
2019-04-01T13:20:37.740Z,13.00
2019-04-01T13:25:33.870Z,13.80
2019-04-01T13:30:35.701Z,13.30
2019-04-01T13:35:39.807Z,13.40
2019-04-01T13:40:40.645Z,12.80
2019-04-01T13:45:42.415Z,12.80
2019-04-01T13:50:48.832Z,13.00
2019-04-01T13:55:51.402Z,13.00
2019-04-01T14:00:52.874Z,12.90
2019-04-01T14:05:54.722Z,13.00
2019-04-01T14:10:56.311Z,13.20
2019-04-01T14:15:58.517Z,13.10
2019-04-01T14:21:14.873Z,13.00
2019-04-01T14:26:03.792Z,12.90
2019-04-01T14:31:06.055Z,12.80
2019-04-01T14:36:07.616Z,12.80
2019-04-01T14:41:09.256Z,12.80
2019-04-01T14:46:10.792Z,13.00
2019-04-01T14:51:12.298Z,12.80
2019-04-01T14:56:13.777Z,12.40
2019-04-01T15:01:15.592Z,12.60
2019-04-01T15:06:17.410Z,12.70
2019-04-01T15:11:19.451Z,12.30
2019-04-01T15:16:20.953Z,12.20
2019-04-01T15:21:22.425Z,12.10
2019-04-01T15:26:24.260Z,12.00
2019-04-01T15:31:25.830Z,11.70
2019-04-01T15:36:27.321Z,11.60
2019-04-01T15:41:28.775Z,11.30
2019-04-01T15:46:30.320Z,11.00
2019-04-01T15:51:33.873Z,10.90
2019-04-01T15:56:35.407Z,10.80
2019-04-01T16:01:37.395Z,10.60
2019-04-01T16:06:38.901Z,10.50
2019-04-01T16:11:40.772Z,10.40
2019-04-01T16:16:42.561Z,10.40
2019-04-01T16:21:44.076Z,10.30
2019-04-01T16:26:45.592Z,10.10
2019-04-01T16:31:47.064Z,10.00
2019-04-01T16:36:48.680Z,9.90
2019-04-01T16:41:51.326Z,9.90
2019-04-01T16:46:55.165Z,9.80
2019-04-01T16:51:56.857Z,9.70
2019-04-01T16:56:58.355Z,9.60
2019-04-01T17:02:17.020Z,9.40
2019-04-01T17:07:07.842Z,9.20
2019-04-01T17:12:10.671Z,9.20
2019-04-01T17:17:12.589Z,9.10
2019-04-01T17:22:14.206Z,8.90
2019-04-01T17:27:15.774Z,8.70
2019-04-01T17:32:17.438Z,8.50
2019-04-01T17:37:19.125Z,8.30
2019-04-01T17:42:20.634Z,8.10
2019-04-01T17:47:22.370Z,8.10
2019-04-01T17:52:25.363Z,7.80
2019-04-01T17:57:27.685Z,7.80
2019-04-01T18:02:30.252Z,7.60
2019-04-01T18:07:32.163Z,7.40
2019-04-01T18:12:33.832Z,7.30
2019-04-01T18:17:35.371Z,7.30
2019-04-01T18:22:37.122Z,7.00
2019-04-01T18:27:38.749Z,6.90
2019-04-01T18:32:40.579Z,6.80
2019-04-01T18:37:42.182Z,6.70
2019-04-01T18:42:43.930Z,6.80
2019-04-01T18:47:45.513Z,6.70
2019-04-01T18:52:47.427Z,6.50
2019-04-01T18:57:49.276Z,6.40
2019-04-01T19:02:50.781Z,6.30
2019-04-01T19:07:52.311Z,6.20
2019-04-01T19:13:05.010Z,6.20
2019-04-01T19:17:57.561Z,6.30
2019-04-01T19:22:59.188Z,6.30
2019-04-01T19:28:00.730Z,6.20
2019-04-01T19:33:02.316Z,6.00
2019-04-01T19:38:07.021Z,6.00
2019-04-01T19:43:07.513Z,6.00
2019-04-01T19:48:09.167Z,5.90
2019-04-01T19:53:11.014Z,5.80
2019-04-01T19:58:12.904Z,5.90
2019-04-01T20:03:14.453Z,5.80
2019-04-01T20:08:16.407Z,5.70
2019-04-01T20:13:18.448Z,5.60
2019-04-01T20:18:20.295Z,5.60
2019-04-01T20:23:22.162Z,5.50
2019-04-01T20:28:24.632Z,5.50
2019-04-01T20:33:26.162Z,5.40
2019-04-01T20:38:27.795Z,5.40
2019-04-01T20:43:29.275Z,5.30
2019-04-01T20:48:31.167Z,5.30
2019-04-01T20:53:32.735Z,5.40
2019-04-01T20:58:34.514Z,5.30
2019-04-01T21:03:35.993Z,5.20
2019-04-01T21:08:38.088Z,5.10
2019-04-01T21:13:39.840Z,5.00
2019-04-01T21:18:41.721Z,5.00
2019-04-01T21:23:43.519Z,5.00
2019-04-01T21:28:45.293Z,5.00
2019-04-01T21:33:46.771Z,4.70
2019-04-01T21:38:48.251Z,4.70
2019-04-01T21:43:49.769Z,4.80
2019-04-01T21:48:51.307Z,4.70
2019-04-01T21:53:52.783Z,4.60
2019-04-01T21:58:54.301Z,4.50
2019-04-01T22:03:55.704Z,4.50
2019-04-01T22:08:57.332Z,4.50
2019-04-01T22:13:58.825Z,4.30
2019-04-01T22:19:00.302Z,4.40
2019-04-01T22:24:01.831Z,4.30
2019-04-01T22:29:03.517Z,4.20
2019-04-01T22:34:05.010Z,4.10
2019-04-01T22:39:06.959Z,4.00
2019-04-01T22:44:08.861Z,4.10
2019-04-01T22:49:12.031Z,4.00
2019-04-01T22:54:13.816Z,4.00
2019-04-01T22:59:15.308Z,3.80
2019-04-01T23:04:16.788Z,3.70
2019-04-01T23:09:18.571Z,3.60
2019-04-01T23:14:20.045Z,3.50
2019-04-01T23:19:21.554Z,3.50
2019-04-01T23:24:23.335Z,3.50
2019-04-01T23:29:26.040Z,3.50
2019-04-01T23:34:27.903Z,3.30
2019-04-01T23:39:29.733Z,3.30
2019-04-01T23:44:31.306Z,3.30
2019-04-01T23:49:32.929Z,3.10
2019-04-01T23:54:34.415Z,3.10
2019-04-01T23:59:35.895Z,3.10
